Sydney, Australia
Current Conditions -  °F | °C
As of 8:00 PM on Friday 24 Oct 2014 (Local Time) from YSSY Reporting Station
Broken Clouds Broken Clouds  
Wind Chill: 22°   Ceiling: 25000
Heat Index: 22°   Visibility: 6mi
Dew Point: 17°   Wind: 24mph
Humidity: 73%   Direction: 30°NNE
Pressure: 29.88"   Gusts: NA
Location:  33.87°S, 151.21°E
Report Text: YSSY 240900Z 03021KT 9999 FEW040 BKN250 22/17 Q1012 NOSIG
Loading
Personal Weather Stations






























Interactive Weather Map
Tropical Storm Tracking
New forecast layout! Learn more

10-Day Weather Forecast

Advertisements
Track Severe Weather on mobile